Time;durP1;ratioP1;P1;durP2;ratioP2;P2;SDS_P1;SDS_P2;PMS_P1;PMS_P2;Temp;Humidity;BMP_temperature;BMP_pressure;BME280_temperature;BME280_humidity;BME280_pressure;Samples;Min_cycle;Max_cycle;Signal;HPM_P1;HPM_P2
2022/11/20 00:01:36;;;;;;;;;;;21.10;44.00;;;;;;484326;246;1521;-43
2022/11/20 00:03:38;;;;;;;;;;;21.10;44.00;;;;;;484560;246;1219;-42
2022/11/20 00:05:40;;;;;;;;;;;21.10;44.00;;;;;;484732;246;1263;-43
2022/11/20 00:07:41;;;;;;;;;;;21.10;44.00;;;;;;484344;245;1607;-44
2022/11/20 00:09:42;;;;;;;;;;;21.10;44.00;;;;;;484240;246;1241;-44
2022/11/20 00:11:44;;;;;;;;;;;21.10;44.00;;;;;;484260;246;2105;-44
2022/11/20 00:13:46;;;;;;;;;;;21.20;44.10;;;;;;484452;246;1285;-44
2022/11/20 00:15:48;;;;;;;;;;;21.10;44.00;;;;;;484337;246;2200;-44
2022/11/20 00:17:49;;;;;;;;;;;21.10;44.10;;;;;;484393;246;2586;-44
2022/11/20 00:19:51;;;;;;;;;;;21.10;44.00;;;;;;484261;246;1345;-44
2022/11/20 00:21:53;;;;;;;;;;;21.10;44.10;;;;;;484421;246;1348;-44
2022/11/20 00:23:53;;;;;;;;;;;21.10;44.10;;;;;;484153;246;2187;-44
2022/11/20 00:25:56;;;;;;;;;;;21.10;44.00;;;;;;484670;246;1795;-44
2022/11/20 00:27:57;;;;;;;;;;;21.10;44.00;;;;;;484621;246;1358;-44
2022/11/20 00:29:59;;;;;;;;;;;21.10;44.00;;;;;;484297;246;1263;-44
2022/11/20 00:32:00;;;;;;;;;;;21.10;44.10;;;;;;484397;246;1310;-44
2022/11/20 00:34:02;;;;;;;;;;;21.10;44.00;;;;;;484790;246;2151;-41
2022/11/20 00:36:03;;;;;;;;;;;21.10;44.10;;;;;;484690;246;1202;-44
2022/11/20 00:38:05;;;;;;;;;;;21.10;44.00;;;;;;484545;246;1230;-44
2022/11/20 00:40:06;;;;;;;;;;;21.10;44.10;;;;;;484515;246;1266;-44
2022/11/20 00:42:07;;;;;;;;;;;21.00;44.10;;;;;;484635;246;1474;-43
2022/11/20 00:44:09;;;;;;;;;;;21.10;44.10;;;;;;484548;246;1341;-41
2022/11/20 00:46:10;;;;;;;;;;;21.10;44.10;;;;;;484327;246;1303;-41
2022/11/20 00:48:12;;;;;;;;;;;21.10;44.10;;;;;;484601;246;2171;-44
2022/11/20 00:50:13;;;;;;;;;;;21.10;44.10;;;;;;484614;246;1376;-44
2022/11/20 00:52:15;;;;;;;;;;;21.10;44.10;;;;;;484779;246;1627;-44
2022/11/20 00:54:16;;;;;;;;;;;21.10;44.00;;;;;;484615;246;2196;-44
2022/11/20 00:56:18;;;;;;;;;;;21.10;44.00;;;;;;484538;246;1693;-44
2022/11/20 00:58:19;;;;;;;;;;;21.10;44.00;;;;;;484314;246;1693;-43
2022/11/20 01:00:21;;;;;;;;;;;21.10;44.10;;;;;;484312;246;1404;-44
2022/11/20 01:02:22;;;;;;;;;;;21.10;44.00;;;;;;484445;246;1662;-44
2022/11/20 01:04:24;;;;;;;;;;;21.10;44.10;;;;;;484455;246;1352;-44
2022/11/20 01:06:25;;;;;;;;;;;21.10;44.10;;;;;;484445;246;1513;-41
2022/11/20 01:08:27;;;;;;;;;;;21.10;44.00;;;;;;484417;246;1332;-44
2022/11/20 01:10:28;;;;;;;;;;;21.10;44.00;;;;;;484560;246;1303;-42
2022/11/20 01:12:29;;;;;;;;;;;21.10;44.00;;;;;;484317;246;2467;-44
2022/11/20 01:14:31;;;;;;;;;;;21.10;44.00;;;;;;484161;246;2754;-44
2022/11/20 01:16:32;;;;;;;;;;;21.10;44.00;;;;;;484556;246;1707;-44
2022/11/20 01:18:34;;;;;;;;;;;21.10;44.10;;;;;;484252;246;1400;-44
2022/11/20 01:20:36;;;;;;;;;;;21.10;44.00;;;;;;484301;246;1700;-43
2022/11/20 01:22:37;;;;;;;;;;;21.10;44.00;;;;;;484358;246;1687;-43
2022/11/20 01:24:39;;;;;;;;;;;21.10;44.00;;;;;;484349;246;3573;-44
2022/11/20 01:26:40;;;;;;;;;;;21.10;44.00;;;;;;484507;246;1636;-44
2022/11/20 01:28:42;;;;;;;;;;;21.10;43.90;;;;;;484613;246;1668;-43
2022/11/20 01:30:43;;;;;;;;;;;21.10;44.00;;;;;;484262;246;1587;-44
2022/11/20 01:32:44;;;;;;;;;;;21.10;44.00;;;;;;484734;246;1244;-44
2022/11/20 01:34:46;;;;;;;;;;;21.10;44.00;;;;;;484183;246;2164;-44
2022/11/20 01:36:48;;;;;;;;;;;21.10;44.00;;;;;;484256;242;1337;-44
2022/11/20 01:38:50;;;;;;;;;;;21.10;43.90;;;;;;484436;246;1700;-43
2022/11/20 01:40:51;;;;;;;;;;;21.10;43.90;;;;;;484237;246;1544;-44
2022/11/20 01:45:12;;;;;;;;;;;21.10;43.90;;;;;;484359;246;1375;-44
2022/11/20 01:47:14;;;;;;;;;;;21.20;43.90;;;;;;484449;246;1255;-41
2022/11/20 01:49:15;;;;;;;;;;;21.30;43.70;;;;;;484428;246;1306;-45
2022/11/20 01:51:18;;;;;;;;;;;21.40;43.30;;;;;;484659;246;1219;-44
2022/11/20 01:53:19;;;;;;;;;;;21.60;43.00;;;;;;484271;246;1249;-44
2022/11/20 01:55:21;;;;;;;;;;;21.70;42.70;;;;;;484692;246;2787;-44
2022/11/20 01:57:22;;;;;;;;;;;21.90;42.50;;;;;;484382;246;1232;-44
2022/11/20 01:59:24;;;;;;;;;;;21.90;42.20;;;;;;484405;246;1730;-41
2022/11/20 02:01:25;;;;;;;;;;;22.00;42.10;;;;;;484810;246;1276;-41
2022/11/20 02:03:27;;;;;;;;;;;22.10;41.90;;;;;;484522;246;1387;-44
2022/11/20 02:05:28;;;;;;;;;;;22.20;41.80;;;;;;484538;246;1195;-41
2022/11/20 02:07:29;;;;;;;;;;;22.20;41.70;;;;;;484382;246;1350;-41
2022/11/20 02:09:31;;;;;;;;;;;22.30;41.60;;;;;;484377;246;1225;-43
2022/11/20 02:11:32;;;;;;;;;;;22.30;41.50;;;;;;484345;246;1767;-44
2022/11/20 02:13:46;;;;;;;;;;;22.40;41.40;;;;;;484708;246;1220;-44
2022/11/20 02:15:47;;;;;;;;;;;22.40;41.40;;;;;;484450;246;2164;-41
2022/11/20 02:17:48;;;;;;;;;;;22.40;41.30;;;;;;484783;246;1396;-42
2022/11/20 02:19:49;;;;;;;;;;;22.50;41.30;;;;;;484486;246;1230;-44
2022/11/20 02:21:54;;;;;;;;;;;22.50;41.20;;;;;;484431;246;1377;-45
2022/11/20 02:23:55;;;;;;;;;;;22.50;41.10;;;;;;484340;246;1474;-44
2022/11/20 02:25:56;;;;;;;;;;;22.60;41.10;;;;;;484439;246;1393;-44
2022/11/20 02:27:58;;;;;;;;;;;22.60;41.10;;;;;;484262;246;1280;-42
2022/11/20 02:29:59;;;;;;;;;;;22.60;41.00;;;;;;484289;246;1432;-41
2022/11/20 02:32:01;;;;;;;;;;;22.70;40.90;;;;;;484338;246;1712;-42
2022/11/20 02:34:02;;;;;;;;;;;22.70;40.90;;;;;;484393;246;1715;-45
2022/11/20 02:36:15;;;;;;;;;;;22.70;40.80;;;;;;484460;246;2199;-40
2022/11/20 02:38:17;;;;;;;;;;;22.70;40.80;;;;;;484424;246;1418;-41
2022/11/20 02:40:18;;;;;;;;;;;22.80;40.80;;;;;;484416;246;1369;-44
2022/11/20 02:42:20;;;;;;;;;;;22.80;40.70;;;;;;484682;246;2634;-44
2022/11/20 02:44:22;;;;;;;;;;;22.80;40.60;;;;;;484297;246;1766;-41
2022/11/20 02:46:23;;;;;;;;;;;22.90;40.70;;;;;;484429;246;1439;-42
2022/11/20 02:48:24;;;;;;;;;;;22.90;40.60;;;;;;484387;246;1454;-42
2022/11/20 02:50:25;;;;;;;;;;;22.90;40.60;;;;;;484397;246;1728;-43
2022/11/20 02:52:28;;;;;;;;;;;22.90;40.60;;;;;;484814;246;1591;-44
2022/11/20 02:54:29;;;;;;;;;;;22.90;40.60;;;;;;484769;246;2029;-45
2022/11/20 02:56:31;;;;;;;;;;;22.90;40.50;;;;;;484490;246;2160;-45
2022/11/20 02:58:33;;;;;;;;;;;22.90;40.50;;;;;;484476;246;1475;-43
2022/11/20 03:00:35;;;;;;;;;;;22.90;40.50;;;;;;484666;246;1401;-44
2022/11/20 03:02:35;;;;;;;;;;;23.00;40.50;;;;;;484414;246;1966;-44
2022/11/20 03:04:37;;;;;;;;;;;23.00;40.40;;;;;;484367;246;1377;-41
2022/11/20 03:06:38;;;;;;;;;;;23.00;40.40;;;;;;484385;246;1244;-45
2022/11/20 03:08:39;;;;;;;;;;;23.00;40.40;;;;;;484248;246;1281;-44
2022/11/20 03:10:41;;;;;;;;;;;23.00;40.30;;;;;;484330;246;1606;-44
2022/11/20 03:12:42;;;;;;;;;;;23.00;40.30;;;;;;484326;242;1656;-44
2022/11/20 03:14:44;;;;;;;;;;;23.10;40.30;;;;;;484287;246;1436;-45
2022/11/20 03:16:45;;;;;;;;;;;23.10;40.20;;;;;;484388;246;2100;-41
2022/11/20 03:18:47;;;;;;;;;;;23.10;40.20;;;;;;484351;246;1866;-43
2022/11/20 03:20:49;;;;;;;;;;;23.10;40.30;;;;;;484730;246;1391;-44
2022/11/20 03:22:51;;;;;;;;;;;23.10;40.20;;;;;;484434;246;1514;-45
2022/11/20 03:24:52;;;;;;;;;;;23.10;40.20;;;;;;484452;246;2365;-44
2022/11/20 03:26:54;;;;;;;;;;;23.20;40.20;;;;;;484449;246;1207;-41
2022/11/20 03:28:55;;;;;;;;;;;23.20;40.20;;;;;;484385;246;1264;-44
2022/11/20 03:30:57;;;;;;;;;;;23.20;40.20;;;;;;484479;246;1284;-45
2022/11/20 03:32:58;;;;;;;;;;;23.20;40.20;;;;;;484885;246;1199;-44
2022/11/20 03:35:00;;;;;;;;;;;23.20;40.20;;;;;;484460;246;2176;-43
2022/11/20 03:37:01;;;;;;;;;;;23.10;40.10;;;;;;484825;246;1903;-43
2022/11/20 03:39:03;;;;;;;;;;;23.00;40.40;;;;;;484467;246;1235;-45
2022/11/20 03:41:04;;;;;;;;;;;22.80;40.80;;;;;;484799;246;1454;-43
2022/11/20 03:43:06;;;;;;;;;;;22.60;41.10;;;;;;484381;246;1719;-45
2022/11/20 03:45:08;;;;;;;;;;;22.50;41.50;;;;;;484366;242;1394;-42
2022/11/20 03:47:10;;;;;;;;;;;22.40;41.70;;;;;;484323;246;1855;-44
2022/11/20 03:49:11;;;;;;;;;;;22.30;41.90;;;;;;484427;246;1668;-44
2022/11/20 03:51:12;;;;;;;;;;;22.20;42.10;;;;;;484216;242;1657;-41
2022/11/20 03:53:14;;;;;;;;;;;22.20;42.20;;;;;;483861;246;1582;-41
2022/11/20 03:55:15;;;;;;;;;;;22.10;42.30;;;;;;484395;246;2188;-44
2022/11/20 03:57:17;;;;;;;;;;;22.00;42.40;;;;;;484517;246;1731;-44
2022/11/20 03:59:18;;;;;;;;;;;22.00;42.60;;;;;;484224;246;1226;-44
2022/11/20 04:01:20;;;;;;;;;;;22.00;42.70;;;;;;484500;246;1761;-41
2022/11/20 04:03:21;;;;;;;;;;;22.00;42.70;;;;;;484292;242;1240;-44
2022/11/20 04:05:23;;;;;;;;;;;22.00;42.70;;;;;;484546;246;1611;-42
2022/11/20 04:07:25;;;;;;;;;;;21.90;42.70;;;;;;484432;246;1421;-43
2022/11/20 04:09:26;;;;;;;;;;;21.90;42.90;;;;;;484357;246;1652;-44
2022/11/20 04:11:28;;;;;;;;;;;21.80;42.90;;;;;;484798;246;1595;-44
2022/11/20 04:13:32;;;;;;;;;;;21.80;43.00;;;;;;484623;246;1316;-44
2022/11/20 04:15:34;;;;;;;;;;;21.80;43.00;;;;;;484431;246;2192;-44
2022/11/20 04:17:35;;;;;;;;;;;21.80;43.10;;;;;;484281;246;2188;-44
2022/11/20 04:19:37;;;;;;;;;;;21.70;43.00;;;;;;484281;246;1367;-44
2022/11/20 04:21:38;;;;;;;;;;;21.70;43.10;;;;;;484348;246;1268;-44
2022/11/20 04:23:39;;;;;;;;;;;21.70;43.10;;;;;;484795;246;1392;-42
2022/11/20 04:25:41;;;;;;;;;;;21.70;43.20;;;;;;484364;246;1245;-41
2022/11/20 04:27:45;;;;;;;;;;;21.70;43.20;;;;;;484330;246;1291;-44
2022/11/20 04:29:46;;;;;;;;;;;21.70;43.30;;;;;;484458;246;1549;-44
2022/11/20 04:31:48;;;;;;;;;;;21.70;43.30;;;;;;484368;246;2741;-44
2022/11/20 04:33:49;;;;;;;;;;;21.70;43.30;;;;;;484409;246;1262;-45
2022/11/20 04:35:50;;;;;;;;;;;21.60;43.30;;;;;;484229;246;2156;-43
2022/11/20 04:37:52;;;;;;;;;;;21.60;43.30;;;;;;484431;246;1338;-41
2022/11/20 04:39:53;;;;;;;;;;;21.60;43.30;;;;;;484725;246;1256;-44
2022/11/20 04:44:15;;;;;;;;;;;21.60;43.30;;;;;;484567;246;1234;-44
2022/11/20 04:46:17;;;;;;;;;;;21.60;43.30;;;;;;484468;246;1317;-44
2022/11/20 04:48:18;;;;;;;;;;;21.60;43.30;;;;;;484838;242;1319;-40
2022/11/20 04:50:20;;;;;;;;;;;21.60;43.30;;;;;;484375;246;1326;-44
2022/11/20 04:52:21;;;;;;;;;;;21.60;43.30;;;;;;484338;246;1479;-44
2022/11/20 04:54:22;;;;;;;;;;;21.60;43.40;;;;;;484604;246;1393;-44
2022/11/20 04:56:24;;;;;;;;;;;21.70;43.10;;;;;;484337;246;2160;-45
2022/11/20 04:58:25;;;;;;;;;;;21.90;42.70;;;;;;484390;246;1284;-44
2022/11/20 05:00:26;;;;;;;;;;;22.00;42.40;;;;;;484440;246;1335;-45
2022/11/20 05:02:28;;;;;;;;;;;22.10;42.20;;;;;;484438;246;1300;-44
2022/11/20 05:04:29;;;;;;;;;;;22.10;42.10;;;;;;484699;246;1808;-44
2022/11/20 05:06:30;;;;;;;;;;;22.00;42.40;;;;;;484320;246;1247;-45
2022/11/20 05:08:32;;;;;;;;;;;21.90;42.50;;;;;;484302;246;1289;-44
2022/11/20 05:10:33;;;;;;;;;;;21.80;42.70;;;;;;484555;246;1239;-41
2022/11/20 05:12:35;;;;;;;;;;;21.80;42.80;;;;;;484285;242;1800;-44
2022/11/20 05:14:36;;;;;;;;;;;21.80;42.90;;;;;;484668;246;1787;-44
2022/11/20 05:16:38;;;;;;;;;;;21.70;43.00;;;;;;484475;246;2160;-44
2022/11/20 05:18:39;;;;;;;;;;;21.70;43.10;;;;;;484822;246;1379;-44
2022/11/20 05:20:41;;;;;;;;;;;21.70;43.20;;;;;;484716;246;1392;-44
2022/11/20 05:22:42;;;;;;;;;;;21.60;43.20;;;;;;484328;242;1365;-44
2022/11/20 05:24:44;;;;;;;;;;;21.60;43.20;;;;;;484458;246;1392;-44
2022/11/20 05:26:45;;;;;;;;;;;21.60;43.30;;;;;;484505;246;1531;-44
2022/11/20 05:28:48;;;;;;;;;;;21.60;43.20;;;;;;484473;246;1431;-44
2022/11/20 05:30:49;;;;;;;;;;;21.60;43.30;;;;;;484372;246;1560;-43
2022/11/20 05:32:50;;;;;;;;;;;21.60;43.30;;;;;;484265;246;1261;-41
2022/11/20 05:34:52;;;;;;;;;;;21.50;43.30;;;;;;484555;246;1307;-43
2022/11/20 05:36:54;;;;;;;;;;;21.50;43.30;;;;;;484470;246;2195;-44
2022/11/20 05:38:55;;;;;;;;;;;21.50;43.40;;;;;;484607;246;1426;-44
2022/11/20 05:40:56;;;;;;;;;;;21.50;43.40;;;;;;484338;246;1236;-44
2022/11/20 05:42:58;;;;;;;;;;;21.50;43.40;;;;;;484312;246;1219;-44
2022/11/20 05:44:59;;;;;;;;;;;21.50;43.40;;;;;;484257;246;1563;-44
2022/11/20 05:47:01;;;;;;;;;;;21.50;43.40;;;;;;484282;246;1382;-44
2022/11/20 05:49:03;;;;;;;;;;;21.50;43.50;;;;;;484315;242;1678;-44
2022/11/20 05:51:04;;;;;;;;;;;21.40;43.50;;;;;;484276;246;1333;-44
2022/11/20 05:53:05;;;;;;;;;;;21.40;43.50;;;;;;484738;246;1718;-44
2022/11/20 05:55:07;;;;;;;;;;;21.40;43.50;;;;;;484283;246;1579;-44
2022/11/20 05:57:08;;;;;;;;;;;21.40;43.50;;;;;;484224;246;2196;-44
2022/11/20 05:59:09;;;;;;;;;;;21.50;43.50;;;;;;484447;246;1418;-44
2022/11/20 06:01:11;;;;;;;;;;;21.50;43.50;;;;;;484722;246;1271;-44
2022/11/20 06:03:12;;;;;;;;;;;21.40;43.60;;;;;;484370;246;1755;-44
2022/11/20 06:05:14;;;;;;;;;;;21.40;43.50;;;;;;484386;246;1729;-44
2022/11/20 06:07:15;;;;;;;;;;;21.40;43.60;;;;;;484210;246;2137;-44
2022/11/20 06:09:17;;;;;;;;;;;21.40;43.50;;;;;;484205;246;1307;-44
2022/11/20 06:11:19;;;;;;;;;;;21.40;43.60;;;;;;484213;246;1726;-44
2022/11/20 06:13:20;;;;;;;;;;;21.40;43.60;;;;;;484197;246;1333;-44
2022/11/20 06:15:22;;;;;;;;;;;21.40;43.60;;;;;;484379;246;1266;-44
2022/11/20 06:17:23;;;;;;;;;;;21.40;43.50;;;;;;484384;246;2149;-44
2022/11/20 06:19:25;;;;;;;;;;;21.40;43.50;;;;;;484377;246;1256;-44
2022/11/20 06:21:27;;;;;;;;;;;21.50;43.40;;;;;;484250;246;1562;-44
2022/11/20 06:23:28;;;;;;;;;;;21.50;43.30;;;;;;484181;246;1288;-45
2022/11/20 06:25:29;;;;;;;;;;;21.50;43.40;;;;;;484267;246;1309;-44
2022/11/20 06:27:31;;;;;;;;;;;21.50;43.40;;;;;;484339;246;2126;-44
2022/11/20 06:29:32;;;;;;;;;;;21.40;43.40;;;;;;484351;246;1582;-44
2022/11/20 06:31:37;;;;;;;;;;;21.40;43.40;;;;;;484218;246;2573;-44
2022/11/20 06:33:35;;;;;;;;;;;21.40;43.50;;;;;;484270;246;1930;-44
2022/11/20 06:35:37;;;;;;;;;;;21.40;43.50;;;;;;484349;246;1277;-41
2022/11/20 06:37:38;;;;;;;;;;;21.40;43.60;;;;;;484231;246;2203;-41
2022/11/20 06:39:40;;;;;;;;;;;21.30;43.60;;;;;;484268;246;1286;-44
2022/11/20 06:41:41;;;;;;;;;;;21.30;43.70;;;;;;484402;246;1306;-44
2022/11/20 06:43:42;;;;;;;;;;;21.30;43.60;;;;;;484212;246;1250;-44
2022/11/20 06:45:44;;;;;;;;;;;21.30;43.60;;;;;;484535;246;1224;-44
2022/11/20 06:47:45;;;;;;;;;;;21.30;43.70;;;;;;484212;246;1647;-44
2022/11/20 06:49:47;;;;;;;;;;;21.30;43.60;;;;;;484217;246;1724;-44
2022/11/20 06:51:48;;;;;;;;;;;21.30;43.70;;;;;;484345;246;1200;-41
2022/11/20 06:53:50;;;;;;;;;;;21.30;43.70;;;;;;484255;246;1370;-40
2022/11/20 06:55:51;;;;;;;;;;;21.30;43.70;;;;;;484721;246;1390;-44
2022/11/20 06:57:52;;;;;;;;;;;21.30;43.60;;;;;;484618;246;2186;-44
2022/11/20 06:59:54;;;;;;;;;;;21.30;43.60;;;;;;484265;246;1387;-44
2022/11/20 07:01:56;;;;;;;;;;;21.30;43.70;;;;;;484357;246;1746;-44
2022/11/20 07:03:58;;;;;;;;;;;21.30;43.70;;;;;;484146;246;1404;-44
2022/11/20 07:05:59;;;;;;;;;;;21.30;43.70;;;;;;484234;246;1730;-41
2022/11/20 07:08:01;;;;;;;;;;;21.30;43.70;;;;;;484258;246;1259;-44
2022/11/20 07:10:02;;;;;;;;;;;21.30;43.70;;;;;;484679;246;1260;-44
2022/11/20 07:12:06;;;;;;;;;;;21.30;43.70;;;;;;484177;246;2174;-43
2022/11/20 07:14:08;;;;;;;;;;;21.30;43.70;;;;;;484385;246;1329;-44
2022/11/20 07:16:09;;;;;;;;;;;21.30;43.80;;;;;;484168;242;1663;-42
2022/11/20 07:18:11;;;;;;;;;;;21.30;43.70;;;;;;484188;246;2124;-44
2022/11/20 07:20:12;;;;;;;;;;;21.30;43.70;;;;;;484657;246;1714;-43
2022/11/20 07:22:13;;;;;;;;;;;21.20;43.70;;;;;;484665;246;1250;-44
2022/11/20 07:24:15;;;;;;;;;;;21.20;43.80;;;;;;484191;246;1338;-44
2022/11/20 07:26:16;;;;;;;;;;;21.20;43.80;;;;;;484226;246;1411;-44
2022/11/20 07:28:17;;;;;;;;;;;21.30;43.70;;;;;;484263;246;1699;-44
2022/11/20 07:30:19;;;;;;;;;;;21.20;43.80;;;;;;484285;246;1351;-44
2022/11/20 07:32:20;;;;;;;;;;;21.20;43.80;;;;;;484231;246;1395;-44
2022/11/20 07:34:22;;;;;;;;;;;21.20;43.70;;;;;;484153;246;1705;-44
2022/11/20 07:36:23;;;;;;;;;;;21.30;43.80;;;;;;484279;246;2204;-42
2022/11/20 07:38:24;;;;;;;;;;;21.20;43.70;;;;;;484480;246;1694;-41
2022/11/20 07:40:26;;;;;;;;;;;21.20;43.70;;;;;;484276;246;1780;-43
2022/11/20 07:42:27;;;;;;;;;;;21.20;43.80;;;;;;484511;243;1639;-41
2022/11/20 07:44:29;;;;;;;;;;;21.20;43.80;;;;;;484094;246;1630;-44
2022/11/20 07:46:30;;;;;;;;;;;21.20;43.80;;;;;;484255;246;1313;-44
2022/11/20 07:48:32;;;;;;;;;;;21.30;43.80;;;;;;484190;246;1503;-44
2022/11/20 07:50:33;;;;;;;;;;;21.20;43.80;;;;;;484618;246;2122;-44
2022/11/20 07:52:34;;;;;;;;;;;21.20;43.80;;;;;;484486;246;1528;-44
2022/11/20 07:54:36;;;;;;;;;;;21.20;43.80;;;;;;484462;246;1563;-41
2022/11/20 07:56:37;;;;;;;;;;;21.20;43.80;;;;;;484282;246;2172;-43
2022/11/20 07:58:42;;;;;;;;;;;21.20;43.80;;;;;;484623;246;1447;-44
2022/11/20 08:00:43;;;;;;;;;;;21.20;43.80;;;;;;484396;246;1205;-43
2022/11/20 08:02:44;;;;;;;;;;;21.20;43.80;;;;;;484306;246;1241;-44
2022/11/20 08:04:46;;;;;;;;;;;21.20;43.80;;;;;;484328;246;1383;-45
2022/11/20 08:06:47;;;;;;;;;;;21.20;43.80;;;;;;484574;246;1209;-43
2022/11/20 08:08:49;;;;;;;;;;;21.20;43.80;;;;;;484224;246;1333;-44
2022/11/20 08:10:50;;;;;;;;;;;21.20;43.80;;;;;;484278;246;1476;-44
2022/11/20 08:15:11;;;;;;;;;;;21.20;43.80;;;;;;484530;246;1391;-44
2022/11/20 08:17:12;;;;;;;;;;;21.30;43.80;;;;;;484227;246;2195;-40
2022/11/20 08:19:14;;;;;;;;;;;21.20;43.80;;;;;;484309;246;1505;-40
2022/11/20 08:21:15;;;;;;;;;;;21.20;43.70;;;;;;484598;246;1542;-42
2022/11/20 08:23:17;;;;;;;;;;;21.20;43.80;;;;;;484300;243;1250;-44
2022/11/20 08:25:18;;;;;;;;;;;21.20;43.80;;;;;;484486;246;1646;-42
2022/11/20 08:27:20;;;;;;;;;;;21.20;43.80;;;;;;484512;246;1273;-44
2022/11/20 08:29:21;;;;;;;;;;;21.20;43.80;;;;;;484303;246;1671;-44
2022/11/20 08:31:22;;;;;;;;;;;21.20;43.80;;;;;;484650;246;1345;-43
2022/11/20 08:33:24;;;;;;;;;;;21.10;43.80;;;;;;484297;246;1625;-41
2022/11/20 08:35:25;;;;;;;;;;;21.20;43.80;;;;;;484324;246;1671;-44
2022/11/20 08:37:27;;;;;;;;;;;21.20;43.90;;;;;;484523;246;2160;-44
2022/11/20 08:39:28;;;;;;;;;;;21.20;43.80;;;;;;484436;246;1178;-41
2022/11/20 08:41:32;;;;;;;;;;;21.20;43.70;;;;;;484237;246;1599;-44
2022/11/20 08:43:31;;;;;;;;;;;21.20;43.70;;;;;;484135;246;1905;-44
2022/11/20 08:45:33;;;;;;;;;;;21.20;43.80;;;;;;484287;246;1481;-41
2022/11/20 08:47:34;;;;;;;;;;;21.20;43.80;;;;;;484431;246;1206;-44
2022/11/20 08:49:35;;;;;;;;;;;21.10;43.80;;;;;;484314;246;1245;-44
2022/11/20 08:51:37;;;;;;;;;;;21.10;43.80;;;;;;484491;246;1210;-41
2022/11/20 08:53:39;;;;;;;;;;;21.20;43.80;;;;;;484345;246;1251;-44
2022/11/20 08:55:41;;;;;;;;;;;21.20;43.80;;;;;;484744;246;1552;-42
2022/11/20 08:57:43;;;;;;;;;;;21.20;43.80;;;;;;484703;246;2152;-44
2022/11/20 08:59:44;;;;;;;;;;;21.10;43.70;;;;;;484304;246;2773;-40
2022/11/20 09:01:48;;;;;;;;;;;21.20;43.80;;;;;;484402;246;1529;-44
2022/11/20 09:03:49;;;;;;;;;;;21.20;43.70;;;;;;484360;246;1222;-44
2022/11/20 09:05:51;;;;;;;;;;;21.20;43.70;;;;;;484329;246;1300;-43
2022/11/20 09:07:52;;;;;;;;;;;21.20;43.80;;;;;;484271;246;1293;-44
2022/11/20 09:09:53;;;;;;;;;;;21.20;43.70;;;;;;484317;246;1263;-44
2022/11/20 09:11:55;;;;;;;;;;;21.20;43.70;;;;;;484549;246;2051;-43
2022/11/20 09:13:57;;;;;;;;;;;21.20;43.70;;;;;;484419;246;1187;-41
2022/11/20 09:15:58;;;;;;;;;;;21.10;43.70;;;;;;484421;246;1286;-43
2022/11/20 09:17:59;;;;;;;;;;;21.10;43.70;;;;;;484534;246;2237;-43
2022/11/20 09:20:01;;;;;;;;;;;21.20;43.70;;;;;;484220;246;2037;-44
2022/11/20 09:22:03;;;;;;;;;;;21.30;43.40;;;;;;484235;246;1850;-41
2022/11/20 09:24:04;;;;;;;;;;;21.50;43.10;;;;;;484743;246;1254;-45
2022/11/20 09:26:05;;;;;;;;;;;21.60;42.70;;;;;;484460;246;1249;-44
2022/11/20 09:28:07;;;;;;;;;;;21.80;42.50;;;;;;484691;246;1396;-44
2022/11/20 09:30:08;;;;;;;;;;;21.90;42.20;;;;;;484340;246;1301;-42
2022/11/20 09:32:09;;;;;;;;;;;22.00;42.00;;;;;;484487;246;1222;-44
2022/11/20 09:34:12;;;;;;;;;;;22.10;41.80;;;;;;484270;246;1900;-45
2022/11/20 09:36:14;;;;;;;;;;;22.20;41.70;;;;;;484422;246;1290;-44
2022/11/20 09:38:15;;;;;;;;;;;22.20;41.60;;;;;;484749;246;2199;-44
2022/11/20 09:40:17;;;;;;;;;;;22.20;41.40;;;;;;484741;246;1293;-43
2022/11/20 09:42:18;;;;;;;;;;;22.30;41.40;;;;;;484772;246;1289;-44
2022/11/20 09:44:19;;;;;;;;;;;22.40;41.30;;;;;;484501;246;1406;-44
2022/11/20 09:46:21;;;;;;;;;;;22.40;41.20;;;;;;484313;246;1338;-44
2022/11/20 09:48:22;;;;;;;;;;;22.50;41.10;;;;;;484182;246;1334;-42
2022/11/20 09:50:24;;;;;;;;;;;22.50;41.00;;;;;;484396;242;1494;-44
2022/11/20 09:52:26;;;;;;;;;;;22.60;40.90;;;;;;484366;245;2272;-44
2022/11/20 09:54:27;;;;;;;;;;;22.60;40.90;;;;;;484266;246;1653;-45
2022/11/20 09:56:29;;;;;;;;;;;22.60;40.80;;;;;;484446;246;1528;-44
2022/11/20 09:58:32;;;;;;;;;;;22.60;40.80;;;;;;484297;246;2168;-42
2022/11/20 10:00:32;;;;;;;;;;;22.70;40.80;;;;;;484505;246;1925;-43
2022/11/20 10:02:33;;;;;;;;;;;22.60;40.70;;;;;;484368;246;1650;-42
2022/11/20 10:04:35;;;;;;;;;;;22.70;40.70;;;;;;484669;242;1290;-44
2022/11/20 10:06:36;;;;;;;;;;;22.70;40.70;;;;;;484414;246;1378;-44
2022/11/20 10:08:37;;;;;;;;;;;22.70;40.60;;;;;;484458;246;1458;-44
2022/11/20 10:10:39;;;;;;;;;;;22.80;40.50;;;;;;484414;246;1291;-42
2022/11/20 10:12:40;;;;;;;;;;;22.80;40.50;;;;;;484843;246;1318;-42
2022/11/20 10:14:41;;;;;;;;;;;22.80;40.40;;;;;;484646;246;1630;-44
2022/11/20 10:16:43;;;;;;;;;;;22.80;40.30;;;;;;484417;246;1357;-41
2022/11/20 10:18:44;;;;;;;;;;;22.90;40.40;;;;;;484493;246;2133;-45
2022/11/20 10:20:45;;;;;;;;;;;22.90;40.30;;;;;;484408;246;1232;-41
2022/11/20 10:22:47;;;;;;;;;;;22.90;40.30;;;;;;484019;246;1308;-44
2022/11/20 10:24:49;;;;;;;;;;;22.90;40.30;;;;;;484363;246;1354;-45
2022/11/20 10:26:50;;;;;;;;;;;22.90;40.30;;;;;;484315;246;2851;-43
2022/11/20 10:28:52;;;;;;;;;;;22.90;40.20;;;;;;484555;246;1422;-43
2022/11/20 10:30:53;;;;;;;;;;;23.00;40.20;;;;;;484462;246;1986;-45
2022/11/20 10:32:56;;;;;;;;;;;23.00;40.20;;;;;;484407;246;2028;-42
2022/11/20 10:34:57;;;;;;;;;;;23.00;40.20;;;;;;484276;246;1577;-42
2022/11/20 10:36:59;;;;;;;;;;;23.00;40.10;;;;;;484293;246;1427;-43
2022/11/20 10:39:00;;;;;;;;;;;23.10;40.10;;;;;;484273;246;2179;-42
2022/11/20 10:43:22;;;;;;;;;;;23.10;40.00;;;;;;484182;246;1609;-41
2022/11/20 10:45:24;;;;;;;;;;;23.10;40.00;;;;;;484405;246;1579;-41
2022/11/20 10:47:26;;;;;;;;;;;23.10;40.00;;;;;;484384;246;2020;-42
2022/11/20 10:49:27;;;;;;;;;;;23.10;40.00;;;;;;484786;246;1240;-45
2022/11/20 10:51:29;;;;;;;;;;;23.10;40.00;;;;;;484391;246;1767;-44
2022/11/20 10:53:30;;;;;;;;;;;23.10;40.00;;;;;;484294;246;1645;-44
2022/11/20 10:55:32;;;;;;;;;;;23.10;40.00;;;;;;484369;246;1254;-41
2022/11/20 10:57:33;;;;;;;;;;;23.10;40.00;;;;;;484543;246;2196;-44
2022/11/20 10:59:35;;;;;;;;;;;23.10;40.10;;;;;;484268;246;1248;-42
2022/11/20 11:01:36;;;;;;;;;;;22.90;40.40;;;;;;484381;246;1649;-44
2022/11/20 11:03:38;;;;;;;;;;;22.70;40.70;;;;;;484299;246;1637;-42
2022/11/20 11:05:39;;;;;;;;;;;22.50;41.00;;;;;;484294;246;1372;-44
2022/11/20 11:07:41;;;;;;;;;;;22.40;41.30;;;;;;484550;246;1311;-43
2022/11/20 11:09:44;;;;;;;;;;;22.30;41.60;;;;;;484373;246;1313;-42
2022/11/20 11:11:46;;;;;;;;;;;22.20;41.80;;;;;;484275;246;1301;-44
2022/11/20 11:13:47;;;;;;;;;;;22.10;41.90;;;;;;484299;246;1933;-42
2022/11/20 11:15:48;;;;;;;;;;;22.10;42.10;;;;;;484553;246;1737;-44
2022/11/20 11:17:50;;;;;;;;;;;22.00;42.20;;;;;;484373;246;2149;-44
2022/11/20 11:19:51;;;;;;;;;;;21.90;42.20;;;;;;484266;246;1721;-44
2022/11/20 11:21:53;;;;;;;;;;;21.90;42.30;;;;;;484396;246;1341;-44
2022/11/20 11:23:54;;;;;;;;;;;21.90;42.40;;;;;;484439;242;1708;-42
2022/11/20 11:25:55;;;;;;;;;;;21.80;42.50;;;;;;484530;246;1696;-44
2022/11/20 11:27:57;;;;;;;;;;;21.80;42.60;;;;;;484442;246;1604;-44
2022/11/20 11:29:59;;;;;;;;;;;21.80;42.60;;;;;;484249;242;1667;-43
2022/11/20 11:32:00;;;;;;;;;;;21.80;42.70;;;;;;484216;246;1568;-44
2022/11/20 11:34:02;;;;;;;;;;;21.70;42.70;;;;;;484225;245;1683;-44
2022/11/20 11:36:03;;;;;;;;;;;21.70;42.70;;;;;;484231;246;1630;-44
2022/11/20 11:38:05;;;;;;;;;;;21.70;42.70;;;;;;484702;246;2180;-44
2022/11/20 11:40:06;;;;;;;;;;;21.70;42.70;;;;;;484316;246;1429;-44
2022/11/20 11:42:08;;;;;;;;;;;21.70;42.70;;;;;;484311;246;1589;-44
2022/11/20 11:46:29;;;;;;;;;;;21.60;42.80;;;;;;484341;246;1624;-41
2022/11/20 11:48:30;;;;;;;;;;;21.60;42.90;;;;;;484421;246;1277;-41
2022/11/20 11:50:31;;;;;;;;;;;21.60;43.00;;;;;;484286;246;1227;-42
2022/11/20 11:52:33;;;;;;;;;;;21.60;43.00;;;;;;484462;246;2145;-43
2022/11/20 11:54:34;;;;;;;;;;;21.50;43.00;;;;;;484465;246;1720;-43
2022/11/20 11:56:36;;;;;;;;;;;21.50;43.00;;;;;;484307;246;1348;-43
2022/11/20 11:58:38;;;;;;;;;;;21.60;43.00;;;;;;484280;246;2195;-41
2022/11/20 12:00:39;;;;;;;;;;;21.50;43.00;;;;;;484694;246;1321;-43
2022/11/20 12:02:41;;;;;;;;;;;21.50;43.00;;;;;;484480;246;1419;-41
2022/11/20 12:04:42;;;;;;;;;;;21.50;43.00;;;;;;484233;246;1412;-44
2022/11/20 12:06:44;;;;;;;;;;;21.50;43.00;;;;;;484363;246;1700;-44
2022/11/20 12:08:45;;;;;;;;;;;21.50;43.10;;;;;;484777;246;1672;-44
2022/11/20 12:10:46;;;;;;;;;;;21.50;43.00;;;;;;484789;246;1688;-44